sensor_id;sensor_type;location;lat;lon;timestamp;pressure;altitude;pressure_sealevel;temperature;humidity
25130;BME280;13308;50.860;13.664;2023-04-28T04:22:55;96721.97;;;7.64;78.26
25130;BME280;13308;50.860;13.664;2023-04-28T04:25:21;96716.41;;;7.74;76.95
25130;BME280;13308;50.860;13.664;2023-04-28T04:27:47;96715.84;;;7.97;74.06
25130;BME280;13308;50.860;13.664;2023-04-28T04:30:13;96715.34;;;8.12;76.40
25130;BME280;13308;50.860;13.664;2023-04-28T04:32:38;96723.06;;;8.35;72.85
25130;BME280;13308;50.860;13.664;2023-04-28T04:35:04;96715.78;;;8.54;72.29
25130;BME280;13308;50.860;13.664;2023-04-28T04:37:29;96704.72;;;8.61;70.10
25130;BME280;13308;50.860;13.664;2023-04-28T04:39:58;96703.00;;;8.74;70.39
25130;BME280;13308;50.860;13.664;2023-04-28T04:42:24;96710.00;;;8.82;67.97
25130;BME280;13308;50.860;13.664;2023-04-28T04:45:10;96700.56;;;8.83;67.05
25130;BME280;13308;50.860;13.664;2023-04-28T04:47:36;96705.22;;;8.86;67.76
25130;BME280;13308;50.860;13.664;2023-04-28T04:50:01;96708.38;;;8.88;66.97
25130;BME280;13308;50.860;13.664;2023-04-28T04:52:27;96700.84;;;8.92;66.93
25130;BME280;13308;50.860;13.664;2023-04-28T04:54:53;96709.00;;;9.03;66.09
25130;BME280;13308;50.860;13.664;2023-04-28T04:57:22;96706.28;;;8.99;65.97
25130;BME280;13308;50.860;13.664;2023-04-28T05:00:05;96707.53;;;8.91;66.99
25130;BME280;13308;50.860;13.664;2023-04-28T05:02:31;96705.97;;;8.90;67.03
25130;BME280;13308;50.860;13.664;2023-04-28T05:04:56;96701.53;;;9.00;66.83
25130;BME280;13308;50.860;13.664;2023-04-28T05:07:22;96695.72;;;8.94;67.08
25130;BME280;13308;50.860;13.664;2023-04-28T05:09:47;96697.94;;;9.06;66.50
25130;BME280;13308;50.860;13.664;2023-04-28T05:12:13;96699.44;;;9.11;66.08
25130;BME280;13308;50.860;13.664;2023-04-28T05:14:39;96703.25;;;9.20;65.39
25130;BME280;13308;50.860;13.664;2023-04-28T05:17:04;96694.88;;;9.31;64.95
25130;BME280;13308;50.860;13.664;2023-04-28T05:19:35;96692.75;;;9.42;64.62
25130;BME280;13308;50.860;13.664;2023-04-28T05:22:01;96688.00;;;9.46;64.29
25130;BME280;13308;50.860;13.664;2023-04-28T05:24:26;96692.53;;;9.59;63.04
25130;BME280;13308;50.860;13.664;2023-04-28T05:26:52;96685.47;;;9.58;62.98
25130;BME280;13308;50.860;13.664;2023-04-28T05:29:19;96686.22;;;9.59;65.01
25130;BME280;13308;50.860;13.664;2023-04-28T05:31:45;96679.91;;;9.62;63.71
25130;BME280;13308;50.860;13.664;2023-04-28T05:34:11;96680.47;;;9.76;63.97
25130;BME280;13308;50.860;13.664;2023-04-28T05:36:36;96669.13;;;9.97;62.39
25130;BME280;13308;50.860;13.664;2023-04-28T05:39:04;96673.81;;;10.00;63.31
25130;BME280;13308;50.860;13.664;2023-04-28T05:41:29;96675.81;;;10.23;63.34
25130;BME280;13308;50.860;13.664;2023-04-28T05:43:55;96668.16;;;10.57;62.74
25130;BME280;13308;50.860;13.664;2023-04-28T05:46:20;96670.50;;;10.78;61.50
25130;BME280;13308;50.860;13.664;2023-04-28T05:48:46;96668.03;;;11.03;59.40
25130;BME280;13308;50.860;13.664;2023-04-28T05:51:12;96671.22;;;11.01;59.74
25130;BME280;13308;50.860;13.664;2023-04-28T05:53:37;96674.34;;;11.03;61.22
25130;BME280;13308;50.860;13.664;2023-04-28T05:56:04;96666.88;;;11.00;61.86
25130;BME280;13308;50.860;13.664;2023-04-28T05:58:31;96671.06;;;11.08;60.59
25130;BME280;13308;50.860;13.664;2023-04-28T06:00:57;96670.38;;;11.04;58.85
25130;BME280;13308;50.860;13.664;2023-04-28T06:03:22;96672.47;;;11.16;59.03
25130;BME280;13308;50.860;13.664;2023-04-28T06:05:48;96681.81;;;11.22;58.18
25130;BME280;13308;50.860;13.664;2023-04-28T06:08:14;96680.97;;;11.25;58.21
25130;BME280;13308;50.860;13.664;2023-04-28T06:10:39;96684.44;;;11.29;57.66
25130;BME280;13308;50.860;13.664;2023-04-28T06:13:04;96679.22;;;11.35;57.42
25130;BME280;13308;50.860;13.664;2023-04-28T06:15:31;96681.97;;;11.35;57.86
25130;BME280;13308;50.860;13.664;2023-04-28T06:17:57;96684.72;;;11.35;57.68
25130;BME280;13308;50.860;13.664;2023-04-28T06:20:23;96679.78;;;11.26;57.53
25130;BME280;13308;50.860;13.664;2023-04-28T06:22:48;96681.59;;;11.33;58.31
25130;BME280;13308;50.860;13.664;2023-04-28T06:25:14;96678.72;;;11.20;57.51
25130;BME280;13308;50.860;13.664;2023-04-28T06:27:45;96676.19;;;11.10;57.98
25130;BME280;13308;50.860;13.664;2023-04-28T06:30:20;96664.84;;;11.04;58.10
25130;BME280;13308;50.860;13.664;2023-04-28T06:32:46;96678.41;;;11.15;57.56
25130;BME280;13308;50.860;13.664;2023-04-28T06:35:11;96673.28;;;11.17;57.29
25130;BME280;13308;50.860;13.664;2023-04-28T06:37:37;96674.03;;;11.17;57.48
25130;BME280;13308;50.860;13.664;2023-04-28T06:40:02;96671.00;;;11.31;58.03
25130;BME280;13308;50.860;13.664;2023-04-28T06:42:28;96677.78;;;11.27;57.97
25130;BME280;13308;50.860;13.664;2023-04-28T06:45:10;96680.69;;;11.39;57.45
25130;BME280;13308;50.860;13.664;2023-04-28T06:47:36;96670.34;;;11.43;57.30
25130;BME280;13308;50.860;13.664;2023-04-28T06:50:02;96674.16;;;11.49;56.73
25130;BME280;13308;50.860;13.664;2023-04-28T06:52:33;96673.69;;;11.70;56.42
25130;BME280;13308;50.860;13.664;2023-04-28T06:54:59;96673.13;;;11.79;57.01
25130;BME280;13308;50.860;13.664;2023-04-28T06:57:24;96671.69;;;11.90;56.13
25130;BME280;13308;50.860;13.664;2023-04-28T06:59:53;96666.50;;;12.08;56.60
25130;BME280;13308;50.860;13.664;2023-04-28T07:02:18;96658.38;;;12.17;56.75
25130;BME280;13308;50.860;13.664;2023-04-28T07:04:43;96668.22;;;12.34;55.74
25130;BME280;13308;50.860;13.664;2023-04-28T07:07:09;96661.81;;;12.37;55.08
25130;BME280;13308;50.860;13.664;2023-04-28T07:09:34;96655.50;;;12.53;55.05
25130;BME280;13308;50.860;13.664;2023-04-28T07:12:00;96654.72;;;12.52;55.54
25130;BME280;13308;50.860;13.664;2023-04-28T07:14:25;96645.63;;;12.52;54.94
25130;BME280;13308;50.860;13.664;2023-04-28T07:16:51;96644.47;;;12.65;54.30
25130;BME280;13308;50.860;13.664;2023-04-28T07:19:16;96649.81;;;12.72;54.52
25130;BME280;13308;50.860;13.664;2023-04-28T07:21:41;96659.44;;;12.68;54.61
25130;BME280;13308;50.860;13.664;2023-04-28T07:24:06;96657.22;;;12.91;54.98
25130;BME280;13308;50.860;13.664;2023-04-28T07:26:32;96652.00;;;13.09;54.86
25130;BME280;13308;50.860;13.664;2023-04-28T07:28:57;96654.03;;;13.21;53.64
25130;BME280;13308;50.860;13.664;2023-04-28T07:31:23;96653.19;;;13.37;53.75
25130;BME280;13308;50.860;13.664;2023-04-28T07:33:48;96650.50;;;13.33;52.94
25130;BME280;13308;50.860;13.664;2023-04-28T07:36:14;96650.66;;;13.80;52.02
25130;BME280;13308;50.860;13.664;2023-04-28T07:38:39;96649.91;;;14.29;50.70
25130;BME280;13308;50.860;13.664;2023-04-28T07:41:04;96642.00;;;14.40;50.74
25130;BME280;13308;50.860;13.664;2023-04-28T07:43:30;96647.75;;;14.46;50.23
25130;BME280;13308;50.860;13.664;2023-04-28T07:45:55;96637.25;;;14.28;51.30
25130;BME280;13308;50.860;13.664;2023-04-28T07:48:21;96633.38;;;14.26;51.31
25130;BME280;13308;50.860;13.664;2023-04-28T07:50:46;96643.72;;;14.59;51.28
25130;BME280;13308;50.860;13.664;2023-04-28T07:53:11;96642.81;;;15.39;49.89
25130;BME280;13308;50.860;13.664;2023-04-28T07:55:37;96650.41;;;16.39;47.30
25130;BME280;13308;50.860;13.664;2023-04-28T07:58:02;96650.47;;;16.27;47.15
25130;BME280;13308;50.860;13.664;2023-04-28T08:00:28;96637.75;;;16.08;47.17
25130;BME280;13308;50.860;13.664;2023-04-28T08:02:53;96636.69;;;16.14;47.01
25130;BME280;13308;50.860;13.664;2023-04-28T08:05:19;96636.19;;;15.67;47.59
25130;BME280;13308;50.860;13.664;2023-04-28T08:07:44;96637.44;;;15.02;48.41
25130;BME280;13308;50.860;13.664;2023-04-28T08:10:10;96630.56;;;14.72;49.94
25130;BME280;13308;50.860;13.664;2023-04-28T08:12:36;96628.47;;;14.64;49.71
25130;BME280;13308;50.860;13.664;2023-04-28T08:15:02;96623.94;;;14.57;49.56
25130;BME280;13308;50.860;13.664;2023-04-28T08:17:28;96627.66;;;14.42;49.54
25130;BME280;13308;50.860;13.664;2023-04-28T08:19:53;96636.03;;;14.29;50.62
25130;BME280;13308;50.860;13.664;2023-04-28T08:22:18;96649.44;;;14.18;51.69
25130;BME280;13308;50.860;13.664;2023-04-28T08:24:44;96618.47;;;14.32;49.96
25130;BME280;13308;50.860;13.664;2023-04-28T08:27:09;96629.38;;;14.02;50.50
25130;BME280;13308;50.860;13.664;2023-04-28T08:29:34;96627.25;;;14.18;50.20
25130;BME280;13308;50.860;13.664;2023-04-28T08:32:00;96632.78;;;14.06;50.59
25130;BME280;13308;50.860;13.664;2023-04-28T08:34:26;96639.25;;;13.90;51.33
25130;BME280;13308;50.860;13.664;2023-04-28T08:36:52;96627.16;;;13.84;51.47
25130;BME280;13308;50.860;13.664;2023-04-28T08:39:18;96629.94;;;14.22;51.00
25130;BME280;13308;50.860;13.664;2023-04-28T08:41:44;96634.53;;;14.50;50.24
25130;BME280;13308;50.860;13.664;2023-04-28T08:44:10;96624.44;;;14.77;49.22
25130;BME280;13308;50.860;13.664;2023-04-28T08:46:43;96612.91;;;15.00;49.84
25130;BME280;13308;50.860;13.664;2023-04-28T08:49:13;96622.91;;;15.19;48.43
25130;BME280;13308;50.860;13.664;2023-04-28T08:51:44;96634.66;;;15.66;48.48
25130;BME280;13308;50.860;13.664;2023-04-28T08:54:13;96628.66;;;15.77;48.24
25130;BME280;13308;50.860;13.664;2023-04-28T08:56:39;96624.22;;;15.88;47.63
25130;BME280;13308;50.860;13.664;2023-04-28T08:59:09;96623.81;;;15.59;47.44
25130;BME280;13308;50.860;13.664;2023-04-28T09:01:34;96625.28;;;15.51;47.83
25130;BME280;13308;50.860;13.664;2023-04-28T09:04:00;96620.41;;;15.64;47.49
25130;BME280;13308;50.860;13.664;2023-04-28T09:06:36;96624.69;;;15.56;48.71
25130;BME280;13308;50.860;13.664;2023-04-28T09:11:59;96610.91;;;16.23;47.23
25130;BME280;13308;50.860;13.664;2023-04-28T09:14:26;96616.31;;;16.35;47.17
25130;BME280;13308;50.860;13.664;2023-04-28T09:16:51;96608.34;;;16.46;47.60
25130;BME280;13308;50.860;13.664;2023-04-28T09:19:17;96611.91;;;16.74;45.61
25130;BME280;13308;50.860;13.664;2023-04-28T09:21:53;96611.16;;;16.55;46.55
25130;BME280;13308;50.860;13.664;2023-04-28T09:24:35;96613.38;;;16.30;47.18
25130;BME280;13308;50.860;13.664;2023-04-28T09:27:04;96618.34;;;16.35;47.20
25130;BME280;13308;50.860;13.664;2023-04-28T09:29:32;96615.94;;;16.55;47.24
25130;BME280;13308;50.860;13.664;2023-04-28T09:32:16;96612.78;;;16.35;47.42
25130;BME280;13308;50.860;13.664;2023-04-28T09:34:52;96608.34;;;16.46;48.73
25130;BME280;13308;50.860;13.664;2023-04-28T09:37:19;96606.50;;;16.70;48.03
25130;BME280;13308;50.860;13.664;2023-04-28T09:39:50;96612.69;;;16.65;48.27
25130;BME280;13308;50.860;13.664;2023-04-28T09:42:35;96616.75;;;16.73;47.74
25130;BME280;13308;50.860;13.664;2023-04-28T09:45:02;96608.94;;;16.41;49.23
25130;BME280;13308;50.860;13.664;2023-04-28T09:47:29;96618.00;;;16.24;48.16
25130;BME280;13308;50.860;13.664;2023-04-28T09:49:58;96621.50;;;16.06;48.83
25130;BME280;13308;50.860;13.664;2023-04-28T09:52:24;96620.50;;;15.82;47.50
25130;BME280;13308;50.860;13.664;2023-04-28T09:54:50;96608.31;;;15.58;49.25
25130;BME280;13308;50.860;13.664;2023-04-28T09:57:17;96618.16;;;15.41;49.14
25130;BME280;13308;50.860;13.664;2023-04-28T09:59:46;96611.94;;;15.37;49.02
25130;BME280;13308;50.860;13.664;2023-04-28T10:02:14;96605.66;;;15.24;49.20
25130;BME280;13308;50.860;13.664;2023-04-28T10:04:41;96590.97;;;15.24;49.75
25130;BME280;13308;50.860;13.664;2023-04-28T10:07:08;96601.13;;;15.18;50.66
25130;BME280;13308;50.860;13.664;2023-04-28T10:09:34;96604.56;;;15.00;51.08
25130;BME280;13308;50.860;13.664;2023-04-28T10:12:00;96605.38;;;14.67;52.43
25130;BME280;13308;50.860;13.664;2023-04-28T10:14:26;96599.78;;;14.79;51.83
25130;BME280;13308;50.860;13.664;2023-04-28T10:16:52;96611.38;;;14.65;53.21
25130;BME280;13308;50.860;13.664;2023-04-28T10:19:19;96609.72;;;14.68;54.40
25130;BME280;13308;50.860;13.664;2023-04-28T10:21:54;96606.63;;;14.19;55.79
25130;BME280;13308;50.860;13.664;2023-04-28T10:24:28;96607.41;;;14.20;56.25
25130;BME280;13308;50.860;13.664;2023-04-28T10:27:03;96608.50;;;14.10;58.17
25130;BME280;13308;50.860;13.664;2023-04-28T10:29:31;96603.28;;;14.24;56.61
25130;BME280;13308;50.860;13.664;2023-04-28T10:32:20;96600.88;;;13.89;58.85
25130;BME280;13308;50.860;13.664;2023-04-28T10:34:46;96611.06;;;13.79;58.24
25130;BME280;13308;50.860;13.664;2023-04-28T10:37:12;96617.38;;;13.42;59.14
25130;BME280;13308;50.860;13.664;2023-04-28T10:42:55;96607.47;;;12.88;64.54
25130;BME280;13308;50.860;13.664;2023-04-28T10:48:21;96606.44;;;12.69;72.86
25130;BME280;13308;50.860;13.664;2023-04-28T10:56:20;96605.31;;;12.22;74.80
25130;BME280;13308;50.860;13.664;2023-04-28T10:58:48;96611.03;;;12.15;74.99
25130;BME280;13308;50.860;13.664;2023-04-28T11:04:10;96606.03;;;11.94;80.10
25130;BME280;13308;50.860;13.664;2023-04-28T11:06:41;96607.16;;;12.13;80.73
25130;BME280;13308;50.860;13.664;2023-04-28T11:11:39;96612.16;;;11.70;80.74
25130;BME280;13308;50.860;13.664;2023-04-28T11:17:00;96609.97;;;11.26;82.93
25130;BME280;13308;50.860;13.664;2023-04-28T11:19:33;96603.16;;;11.30;86.80
25130;BME280;13308;50.860;13.664;2023-04-28T11:22:12;96615.03;;;11.47;84.86
25130;BME280;13308;50.860;13.664;2023-04-28T11:24:37;96606.84;;;11.43;86.92
25130;BME280;13308;50.860;13.664;2023-04-28T11:27:03;96612.84;;;11.38;87.88
25130;BME280;13308;50.860;13.664;2023-04-28T11:29:41;96616.28;;;11.42;88.60
25130;BME280;13308;50.860;13.664;2023-04-28T11:32:08;96625.78;;;11.25;85.84
25130;BME280;13308;50.860;13.664;2023-04-28T11:34:35;96603.16;;;11.30;87.49
25130;BME280;13308;50.860;13.664;2023-04-28T11:37:01;96606.31;;;11.13;84.91
25130;BME280;13308;50.860;13.664;2023-04-28T11:39:31;96607.88;;;10.94;84.76
25130;BME280;13308;50.860;13.664;2023-04-28T11:41:59;96598.53;;;10.88;86.75
25130;BME280;13308;50.860;13.664;2023-04-28T11:44:27;96596.28;;;11.03;88.60
25130;BME280;13308;50.860;13.664;2023-04-28T11:46:57;96607.59;;;10.89;86.32
25130;BME280;13308;50.860;13.664;2023-04-28T11:49:27;96604.34;;;10.94;88.11
25130;BME280;13308;50.860;13.664;2023-04-28T11:51:53;96594.09;;;10.94;85.75
25130;BME280;13308;50.860;13.664;2023-04-28T11:54:21;96605.19;;;11.10;88.22
25130;BME280;13308;50.860;13.664;2023-04-28T11:56:47;96588.78;;;11.03;88.40
25130;BME280;13308;50.860;13.664;2023-04-28T11:59:12;96594.56;;;11.09;90.12
25130;BME280;13308;50.860;13.664;2023-04-28T12:01:49;96588.22;;;10.92;90.69
25130;BME280;13308;50.860;13.664;2023-04-28T12:04:35;96589.84;;;11.09;93.81
25130;BME280;13308;50.860;13.664;2023-04-28T12:07:11;96583.44;;;11.12;91.04
25130;BME280;13308;50.860;13.664;2023-04-28T12:10:08;96576.59;;;11.20;93.26
25130;BME280;13308;50.860;13.664;2023-04-28T12:12:33;96593.47;;;11.22;93.07
25130;BME280;13308;50.860;13.664;2023-04-28T12:15:00;96591.06;;;11.24;92.46
25130;BME280;13308;50.860;13.664;2023-04-28T12:19:53;96580.19;;;11.17;93.10
25130;BME280;13308;50.860;13.664;2023-04-28T12:22:19;96585.03;;;11.29;92.52
25130;BME280;13308;50.860;13.664;2023-04-28T12:24:45;96573.16;;;11.48;96.30
25130;BME280;13308;50.860;13.664;2023-04-28T12:29:40;96582.13;;;11.36;97.05
25130;BME280;13308;50.860;13.664;2023-04-28T12:32:07;96563.03;;;11.26;97.20
25130;BME280;13308;50.860;13.664;2023-04-28T12:34:33;96563.91;;;11.23;97.33
25130;BME280;13308;50.860;13.664;2023-04-28T12:37:00;96570.84;;;11.11;99.30
25130;BME280;13308;50.860;13.664;2023-04-28T12:39:26;96574.81;;;11.10;98.61
25130;BME280;13308;50.860;13.664;2023-04-28T12:41:51;96565.72;;;10.94;99.97
25130;BME280;13308;50.860;13.664;2023-04-28T12:44:19;96568.84;;;10.96;100.00
25130;BME280;13308;50.860;13.664;2023-04-28T12:46:45;96564.59;;;10.91;100.00
25130;BME280;13308;50.860;13.664;2023-04-28T12:49:10;96555.97;;;10.89;100.00
25130;BME280;13308;50.860;13.664;2023-04-28T12:51:36;96560.97;;;10.94;100.00
25130;BME280;13308;50.860;13.664;2023-04-28T12:54:03;96556.16;;;10.98;100.00
25130;BME280;13308;50.860;13.664;2023-04-28T12:56:29;96564.19;;;10.93;100.00
25130;BME280;13308;50.860;13.664;2023-04-28T12:58:54;96561.69;;;10.98;100.00
25130;BME280;13308;50.860;13.664;2023-04-28T13:01:19;96560.41;;;11.03;99.69
25130;BME280;13308;50.860;13.664;2023-04-28T13:03:45;96552.97;;;11.00;98.53
25130;BME280;13308;50.860;13.664;2023-04-28T13:06:12;96562.00;;;11.20;98.06
25130;BME280;13308;50.860;13.664;2023-04-28T13:08:37;96541.91;;;11.19;98.76
25130;BME280;13308;50.860;13.664;2023-04-28T13:11:03;96535.19;;;11.20;97.15
25130;BME280;13308;50.860;13.664;2023-04-28T13:13:29;96540.44;;;11.31;98.73
25130;BME280;13308;50.860;13.664;2023-04-28T13:15:55;96529.66;;;11.36;98.15
25130;BME280;13308;50.860;13.664;2023-04-28T13:18:20;96529.16;;;11.41;97.13
25130;BME280;13308;50.860;13.664;2023-04-28T13:20:47;96525.22;;;11.58;95.82
25130;BME280;13308;50.860;13.664;2023-04-28T13:23:12;96530.47;;;11.69;95.30
25130;BME280;13308;50.860;13.664;2023-04-28T13:25:38;96526.53;;;11.70;92.58
25130;BME280;13308;50.860;13.664;2023-04-28T13:28:03;96523.31;;;11.71;90.36
25130;BME280;13308;50.860;13.664;2023-04-28T13:30:28;96515.38;;;11.73;90.02
25130;BME280;13308;50.860;13.664;2023-04-28T13:32:54;96519.88;;;11.67;91.56
25130;BME280;13308;50.860;13.664;2023-04-28T13:35:19;96514.41;;;11.80;89.13
25130;BME280;13308;50.860;13.664;2023-04-28T13:37:45;96506.19;;;12.08;90.28
25130;BME280;13308;50.860;13.664;2023-04-28T13:40:11;96512.84;;;12.23;87.97
25130;BME280;13308;50.860;13.664;2023-04-28T13:42:36;96504.25;;;12.21;87.31
25130;BME280;13308;50.860;13.664;2023-04-28T13:45:02;96498.09;;;12.42;85.42
25130;BME280;13308;50.860;13.664;2023-04-28T13:47:28;96500.13;;;12.54;84.89
25130;BME280;13308;50.860;13.664;2023-04-28T13:49:56;96488.69;;;12.93;85.19
25130;BME280;13308;50.860;13.664;2023-04-28T13:52:22;96483.75;;;13.01;81.14
25130;BME280;13308;50.860;13.664;2023-04-28T13:54:47;96487.31;;;13.14;83.68
25130;BME280;13308;50.860;13.664;2023-04-28T13:57:12;96483.63;;;13.17;80.68
25130;BME280;13308;50.860;13.664;2023-04-28T13:59:38;96473.91;;;13.12;78.83
25130;BME280;13308;50.860;13.664;2023-04-28T14:02:03;96479.53;;;13.34;78.76
25130;BME280;13308;50.860;13.664;2023-04-28T14:04:28;96475.66;;;13.31;78.80
25130;BME280;13308;50.860;13.664;2023-04-28T14:06:54;96470.06;;;13.56;79.21
25130;BME280;13308;50.860;13.664;2023-04-28T14:09:19;96464.53;;;13.56;78.84
25130;BME280;13308;50.860;13.664;2023-04-28T14:11:45;96466.00;;;13.36;76.21
25130;BME280;13308;50.860;13.664;2023-04-28T14:14:10;96472.34;;;13.36;78.26
25130;BME280;13308;50.860;13.664;2023-04-28T14:16:36;96458.16;;;13.34;78.34
25130;BME280;13308;50.860;13.664;2023-04-28T14:19:01;96450.88;;;13.03;77.79
25130;BME280;13308;50.860;13.664;2023-04-28T14:21:26;96451.50;;;13.19;78.13
25130;BME280;13308;50.860;13.664;2023-04-28T14:23:52;96453.50;;;13.06;77.43
25130;BME280;13308;50.860;13.664;2023-04-28T14:26:17;96448.22;;;12.99;77.43
25130;BME280;13308;50.860;13.664;2023-04-28T14:28:43;96434.34;;;13.12;79.04
25130;BME280;13308;50.860;13.664;2023-04-28T14:31:08;96438.03;;;13.21;78.71
25130;BME280;13308;50.860;13.664;2023-04-28T14:33:33;96437.34;;;13.17;77.66
25130;BME280;13308;50.860;13.664;2023-04-28T14:35:59;96432.56;;;12.93;76.36
25130;BME280;13308;50.860;13.664;2023-04-28T14:38:26;96437.63;;;12.82;77.36
25130;BME280;13308;50.860;13.664;2023-04-28T14:40:52;96425.34;;;12.70;77.33
25130;BME280;13308;50.860;13.664;2023-04-28T14:43:17;96427.13;;;12.64;77.90
25130;BME280;13308;50.860;13.664;2023-04-28T14:45:43;96416.59;;;12.59;78.53
25130;BME280;13308;50.860;13.664;2023-04-28T14:48:08;96409.75;;;12.76;78.38
25130;BME280;13308;50.860;13.664;2023-04-28T14:50:35;96416.13;;;12.48;79.55
25130;BME280;13308;50.860;13.664;2023-04-28T14:53:00;96403.09;;;12.49;79.25
25130;BME280;13308;50.860;13.664;2023-04-28T14:55:30;96402.44;;;12.57;79.93
25130;BME280;13308;50.860;13.664;2023-04-28T14:57:55;96408.88;;;12.67;78.96
25130;BME280;13308;50.860;13.664;2023-04-28T15:00:21;96404.31;;;12.48;80.09
25130;BME280;13308;50.860;13.664;2023-04-28T15:02:46;96397.44;;;12.52;80.08
25130;BME280;13308;50.860;13.664;2023-04-28T15:05:12;96386.63;;;12.70;77.57
25130;BME280;13308;50.860;13.664;2023-04-28T15:07:38;96391.47;;;12.66;77.83
25130;BME280;13308;50.860;13.664;2023-04-28T15:10:03;96392.25;;;12.92;76.42
25130;BME280;13308;50.860;13.664;2023-04-28T15:12:28;96393.03;;;12.92;77.37
25130;BME280;13308;50.860;13.664;2023-04-28T15:14:55;96383.97;;;12.79;77.17
25130;BME280;13308;50.860;13.664;2023-04-28T15:17:20;96382.63;;;12.71;76.15
25130;BME280;13308;50.860;13.664;2023-04-28T15:19:47;96383.19;;;12.79;76.61
25130;BME280;13308;50.860;13.664;2023-04-28T15:22:13;96375.09;;;12.59;77.03
25130;BME280;13308;50.860;13.664;2023-04-28T15:24:39;96382.84;;;12.64;77.67
25130;BME280;13308;50.860;13.664;2023-04-28T15:27:04;96373.13;;;12.60;78.25
25130;BME280;13308;50.860;13.664;2023-04-28T15:29:30;96378.63;;;12.47;78.54
25130;BME280;13308;50.860;13.664;2023-04-28T15:31:55;96376.75;;;12.44;79.41
25130;BME280;13308;50.860;13.664;2023-04-28T15:34:21;96373.09;;;12.47;78.53
25130;BME280;13308;50.860;13.664;2023-04-28T15:36:46;96377.94;;;12.43;79.17
25130;BME280;13308;50.860;13.664;2023-04-28T15:39:12;96366.34;;;12.48;78.04
25130;BME280;13308;50.860;13.664;2023-04-28T15:41:37;96368.25;;;12.51;77.51
25130;BME280;13308;50.860;13.664;2023-04-28T15:44:03;96363.47;;;12.52;76.62
25130;BME280;13308;50.860;13.664;2023-04-28T15:46:29;96376.28;;;12.46;77.63
25130;BME280;13308;50.860;13.664;2023-04-28T15:48:54;96367.69;;;12.44;77.95
25130;BME280;13308;50.860;13.664;2023-04-28T15:51:20;96381.06;;;12.45;78.14
25130;BME280;13308;50.860;13.664;2023-04-28T15:53:45;96368.47;;;12.44;79.67
25130;BME280;13308;50.860;13.664;2023-04-28T15:56:10;96368.56;;;12.53;78.48
25130;BME280;13308;50.860;13.664;2023-04-28T15:58:36;96367.56;;;12.47;79.29
25130;BME280;13308;50.860;13.664;2023-04-28T16:01:01;96373.22;;;12.44;81.26
25130;BME280;13308;50.860;13.664;2023-04-28T16:03:27;96367.69;;;12.44;78.89
25130;BME280;13308;50.860;13.664;2023-04-28T16:05:53;96358.50;;;12.72;78.36
25130;BME280;13308;50.860;13.664;2023-04-28T16:08:19;96365.69;;;12.69;78.25
25130;BME280;13308;50.860;13.664;2023-04-28T16:10:48;96360.25;;;12.78;78.11
25130;BME280;13308;50.860;13.664;2023-04-28T16:13:13;96355.84;;;12.81;78.88
25130;BME280;13308;50.860;13.664;2023-04-28T16:15:38;96354.84;;;12.75;79.11
25130;BME280;13308;50.860;13.664;2023-04-28T16:18:05;96358.03;;;12.73;79.10
25130;BME280;13308;50.860;13.664;2023-04-28T16:20:31;96351.88;;;12.69;79.35
25130;BME280;13308;50.860;13.664;2023-04-28T16:22:57;96353.28;;;12.61;80.74
25130;BME280;13308;50.860;13.664;2023-04-28T16:25:23;96350.09;;;12.50;82.33
25130;BME280;13308;50.860;13.664;2023-04-28T16:27:48;96352.88;;;12.50;80.64
25130;BME280;13308;50.860;13.664;2023-04-28T16:30:13;96353.38;;;12.33;82.81
25130;BME280;13308;50.860;13.664;2023-04-28T16:32:39;96346.75;;;12.55;81.84
25130;BME280;13308;50.860;13.664;2023-04-28T16:35:05;96345.19;;;12.29;82.73
25130;BME280;13308;50.860;13.664;2023-04-28T16:37:31;96345.28;;;12.13;84.62
25130;BME280;13308;50.860;13.664;2023-04-28T16:39:56;96338.81;;;12.32;84.75
25130;BME280;13308;50.860;13.664;2023-04-28T16:42:21;96335.13;;;12.35;84.11
25130;BME280;13308;50.860;13.664;2023-04-28T16:44:47;96347.84;;;12.20;84.39
25130;BME280;13308;50.860;13.664;2023-04-28T16:47:14;96336.38;;;12.34;84.83
25130;BME280;13308;50.860;13.664;2023-04-28T16:49:39;96337.44;;;12.24;85.65
25130;BME280;13308;50.860;13.664;2023-04-28T16:52:05;96333.47;;;12.25;85.41
25130;BME280;13308;50.860;13.664;2023-04-28T16:54:31;96336.72;;;11.95;87.10
25130;BME280;13308;50.860;13.664;2023-04-28T16:56:58;96326.97;;;11.78;88.36
25130;BME280;13308;50.860;13.664;2023-04-28T16:59:24;96338.91;;;11.75;88.43
25130;BME280;13308;50.860;13.664;2023-04-28T17:01:53;96318.88;;;11.71;89.49
25130;BME280;13308;50.860;13.664;2023-04-28T17:04:19;96324.44;;;11.55;91.20
25130;BME280;13308;50.860;13.664;2023-04-28T17:06:44;96323.44;;;11.49;91.71
25130;BME280;13308;50.860;13.664;2023-04-28T17:09:10;96304.38;;;11.39;93.21
25130;BME280;13308;50.860;13.664;2023-04-28T17:11:36;96314.94;;;11.28;94.21
25130;BME280;13308;50.860;13.664;2023-04-28T17:14:04;96298.53;;;11.21;95.63
25130;BME280;13308;50.860;13.664;2023-04-28T17:16:31;96288.88;;;11.29;95.82
25130;BME280;13308;50.860;13.664;2023-04-28T17:18:56;96264.31;;;11.18;96.83
25130;BME280;13308;50.860;13.664;2023-04-28T17:21:22;96295.75;;;11.08;98.08
25130;BME280;13308;50.860;13.664;2023-04-28T17:23:47;96290.31;;;11.05;98.09
25130;BME280;13308;50.860;13.664;2023-04-28T17:26:12;96280.03;;;11.05;98.75
25130;BME280;13308;50.860;13.664;2023-04-28T17:28:40;96286.09;;;11.00;99.58
25130;BME280;13308;50.860;13.664;2023-04-28T17:31:07;96285.94;;;10.91;99.88
25130;BME280;13308;50.860;13.664;2023-04-28T17:33:32;96287.47;;;10.92;100.00
25130;BME280;13308;50.860;13.664;2023-04-28T17:35:58;96284.41;;;10.90;100.00
25130;BME280;13308;50.860;13.664;2023-04-28T17:38:23;96293.88;;;10.89;100.00